Аэропорт: Кольцово. Екатеринбург

ICAO: USSS

METAR:
2020-06-04 04:30:00
USSS 040430Z 08005MPS CAVOK 15/02 Q1023 R08L/010060 NOSIG RMK QFE747/0996
METAR:
2020-06-04 01:54:00
TAF USSS 040154Z 0403/0503 09003G10MPS CAVOK BECMG 0416/0418 16003MPS BECMG 0418/0420 3100 BR SCT016